Time;durP1;ratioP1;P1;durP2;ratioP2;P2;SDS_P1;SDS_P2;PMS_P1;PMS_P2;Temp;Humidity;BMP_temperature;BMP_pressure;BME280_temperature;BME280_humidity;BME280_pressure;Samples;Min_cycle;Max_cycle;Signal;HPM_P1;HPM_P2
2022/07/30 00:00:56;;;;;;;3.78;2.30;;;21.80;60.30;;;;;;5014053;28;20393;-66
2022/07/30 00:03:22;;;;;;;5.57;2.13;;;21.90;60.90;;;;;;5014130;28;20026;-66
2022/07/30 00:05:48;;;;;;;3.08;2.20;;;21.80;60.40;;;;;;5012983;28;20052;-67
2022/07/30 00:08:13;;;;;;;4.22;2.35;;;21.80;60.40;;;;;;5012786;28;20034;-67
2022/07/30 00:10:39;;;;;;;5.20;2.03;;;21.80;60.60;;;;;;5012725;28;20041;-67
2022/07/30 00:13:05;;;;;;;7.68;2.58;;;21.80;60.80;;;;;;5013849;28;20033;-66
2022/07/30 00:15:31;;;;;;;6.43;2.70;;;21.70;61.30;;;;;;5013998;28;20030;-66
2022/07/30 00:17:56;;;;;;;7.65;2.13;;;21.70;60.90;;;;;;5013613;28;20355;-66
2022/07/30 00:20:22;;;;;;;7.85;2.85;;;21.70;60.90;;;;;;5012517;28;20022;-66
2022/07/30 00:22:48;;;;;;;5.15;2.17;;;21.70;61.10;;;;;;5012820;28;20101;-65
2022/07/30 00:25:13;;;;;;;4.78;2.50;;;21.70;61.20;;;;;;5012760;28;20072;-66
2022/07/30 00:27:39;;;;;;;5.65;2.67;;;21.70;61.30;;;;;;5012484;28;20108;-66
2022/07/30 00:30:05;;;;;;;4.10;2.08;;;21.60;61.40;;;;;;5012986;28;20800;-67
2022/07/30 00:32:31;;;;;;;5.10;2.00;;;21.60;61.40;;;;;;5014470;28;20076;-66
2022/07/30 00:34:56;;;;;;;3.47;2.30;;;21.60;61.60;;;;;;5012881;28;20037;-66
2022/07/30 00:37:22;;;;;;;4.50;2.45;;;21.50;61.70;;;;;;5013055;28;20109;-66
2022/07/30 00:39:48;;;;;;;4.00;1.90;;;21.50;61.70;;;;;;5013458;28;20389;-66
2022/07/30 00:42:13;;;;;;;7.50;2.28;;;21.50;61.90;;;;;;5012088;28;20037;-66
2022/07/30 00:44:40;;;;;;;5.25;2.00;;;21.50;62.00;;;;;;5013834;28;20030;-64
2022/07/30 00:47:05;;;;;;;5.90;2.30;;;21.50;62.10;;;;;;5012020;28;20033;-66
2022/07/30 00:49:31;;;;;;;4.40;2.22;;;21.40;62.10;;;;;;5012124;28;20038;-65
2022/07/30 00:51:57;;;;;;;4.30;2.20;;;21.40;62.20;;;;;;5012096;28;20436;-65
2022/07/30 00:54:23;;;;;;;5.78;2.30;;;21.40;62.30;;;;;;5012032;28;20026;-65
2022/07/30 00:56:48;;;;;;;4.20;2.45;;;21.40;62.50;;;;;;5013246;28;20030;-65
2022/07/30 00:59:14;;;;;;;5.47;2.35;;;21.30;62.60;;;;;;5011850;28;20033;-66
2022/07/30 01:01:40;;;;;;;3.72;2.25;;;21.30;62.60;;;;;;5013265;28;20584;-66
2022/07/30 01:04:10;;;;;;;5.32;2.40;;;21.30;62.80;;;;;;5011944;28;20432;-66
2022/07/30 01:06:39;;;;;;;4.38;1.90;;;21.30;62.90;;;;;;5014036;28;20117;-66
2022/07/30 01:09:06;;;;;;;4.43;2.55;;;21.20;62.80;;;;;;5009751;28;20048;-66
2022/07/30 01:11:38;;;;;;;3.75;2.60;;;21.20;62.90;;;;;;5013919;28;20424;-66
2022/07/30 01:14:06;;;;;;;5.00;2.30;;;21.20;63.10;;;;;;5011621;28;20033;-66
2022/07/30 01:16:33;;;;;;;3.33;2.28;;;21.20;63.20;;;;;;5012622;28;20060;-65
2022/07/30 01:21:53;;;;;;;4.43;2.00;;;21.20;63.30;;;;;;5012809;28;20022;-66
2022/07/30 01:24:29;;;;;;;5.03;2.10;;;21.20;63.50;;;;;;5011395;28;20580;-65
2022/07/30 01:26:55;;;;;;;4.93;2.47;;;21.10;63.50;;;;;;5012937;28;20377;-66
2022/07/30 01:29:22;;;;;;;4.13;2.83;;;21.10;63.60;;;;;;4993543;28;20030;-65
2022/07/30 01:31:49;;;;;;;5.88;2.83;;;21.10;63.70;;;;;;5012940;28;20025;-65
2022/07/30 01:34:16;;;;;;;4.10;2.50;;;21.10;63.90;;;;;;5011319;28;20026;-65
2022/07/30 01:36:44;;;;;;;4.13;2.63;;;21.00;63.90;;;;;;5013166;28;20026;-65
2022/07/30 01:39:10;;;;;;;3.38;2.13;;;21.00;64.00;;;;;;5010414;28;20033;-65
2022/07/30 01:41:37;;;;;;;3.75;2.10;;;21.00;64.20;;;;;;5012133;28;20168;-65
2022/07/30 01:44:04;;;;;;;5.57;2.47;;;21.00;64.20;;;;;;5012218;28;20030;-65
2022/07/30 01:46:31;;;;;;;4.65;3.00;;;20.90;64.80;;;;;;5011478;28;20116;-65
2022/07/30 01:48:58;;;;;;;6.93;2.92;;;20.90;64.40;;;;;;5009467;28;20033;-65
2022/07/30 01:51:24;;;;;;;3.92;2.20;;;20.90;64.50;;;;;;5011466;28;20092;-65
2022/07/30 01:53:52;;;;;;;4.38;2.25;;;20.90;64.50;;;;;;5008978;28;20037;-65
2022/07/30 01:56:20;;;;;;;5.28;2.42;;;20.90;64.60;;;;;;5013148;28;20113;-65
2022/07/30 01:58:48;;;;;;;6.45;2.75;;;20.80;64.70;;;;;;5014204;28;20536;-66
2022/07/30 02:01:14;;;;;;;4.90;2.65;;;20.80;64.80;;;;;;5011351;28;20037;-65
2022/07/30 02:03:40;;;;;;;6.93;2.08;;;20.80;64.90;;;;;;5010858;28;20080;-66
2022/07/30 02:06:15;;;;;;;3.72;2.55;;;20.80;64.90;;;;;;5011470;28;20516;-65
2022/07/30 02:08:44;;;;;;;7.35;2.70;;;20.80;65.10;;;;;;5010719;28;20069;-66
2022/07/30 02:11:14;;;;;;;6.03;2.75;;;20.80;65.10;;;;;;5011908;28;20489;-66
2022/07/30 02:13:53;;;;;;;3.80;2.40;;;20.80;65.10;;;;;;5011011;28;20236;-65
2022/07/30 02:16:28;;;;;;;8.02;2.63;;;20.80;65.20;;;;;;5012467;28;20038;-65
2022/07/30 02:19:10;;;;;;;4.45;2.28;;;20.70;65.30;;;;;;5010480;28;20029;-66
2022/07/30 02:21:40;;;;;;;5.97;2.55;;;20.70;65.30;;;;;;5011087;28;20061;-65
2022/07/30 02:24:12;;;;;;;5.60;2.35;;;20.70;65.50;;;;;;5011627;28;20033;-66
2022/07/30 02:26:40;;;;;;;4.93;2.70;;;20.70;65.50;;;;;;5011475;28;20057;-66
2022/07/30 02:29:07;;;;;;;4.95;2.30;;;20.70;65.70;;;;;;5010592;28;20050;-65
2022/07/30 02:31:33;;;;;;;3.42;2.20;;;20.60;65.60;;;;;;5003365;28;20037;-65
2022/07/30 02:34:03;;;;;;;4.72;2.40;;;20.60;65.70;;;;;;5011435;28;20101;-66
2022/07/30 02:36:31;;;;;;;5.43;2.33;;;20.60;65.80;;;;;;5009971;28;20032;-65
2022/07/30 02:38:58;;;;;;;4.20;2.42;;;20.60;65.80;;;;;;5010150;28;20549;-65
2022/07/30 02:41:27;;;;;;;5.55;2.50;;;20.60;65.90;;;;;;5011987;28;20113;-65
2022/07/30 02:43:53;;;;;;;5.45;2.20;;;20.60;66.00;;;;;;5009302;28;20056;-65
2022/07/30 02:46:21;;;;;;;5.85;2.72;;;20.50;66.10;;;;;;5011879;28;20371;-65
2022/07/30 02:48:48;;;;;;;3.58;2.08;;;20.50;66.20;;;;;;5010650;28;20022;-65
2022/07/30 02:51:16;;;;;;;4.97;2.40;;;20.50;66.40;;;;;;5009514;28;20124;-66
2022/07/30 02:53:45;;;;;;;3.47;2.47;;;20.50;66.60;;;;;;5010581;28;20028;-66
2022/07/30 02:56:12;;;;;;;4.97;2.35;;;20.50;66.60;;;;;;5011645;28;20439;-66
2022/07/30 02:58:39;;;;;;;5.03;2.08;;;20.40;66.70;;;;;;5010239;28;20032;-66
2022/07/30 03:01:05;;;;;;;4.28;2.28;;;20.40;66.70;;;;;;5011463;28;20057;-65
2022/07/30 03:03:32;;;;;;;8.15;2.67;;;20.40;66.80;;;;;;5010120;28;20083;-65
2022/07/30 03:06:01;;;;;;;7.25;2.90;;;20.40;66.80;;;;;;5010329;28;20133;-65
2022/07/30 03:08:27;;;;;;;6.20;2.40;;;20.40;67.00;;;;;;5009554;28;20164;-65
2022/07/30 03:10:54;;;;;;;3.00;2.17;;;20.40;67.00;;;;;;5011317;28;20549;-65
2022/07/30 03:13:22;;;;;;;5.35;2.33;;;20.40;67.10;;;;;;5009568;28;20026;-66
2022/07/30 03:15:50;;;;;;;6.43;2.10;;;20.40;67.10;;;;;;5011297;28;20053;-65
2022/07/30 03:18:18;;;;;;;5.20;2.33;;;20.40;67.10;;;;;;5012536;28;20029;-65
2022/07/30 03:20:48;;;;;;;4.22;2.10;;;20.40;67.20;;;;;;5014496;28;20029;-65
2022/07/30 03:23:17;;;;;;;3.40;2.28;;;20.40;67.30;;;;;;5014029;28;20045;-65
2022/07/30 03:25:48;;;;;;;3.55;2.40;;;20.40;67.40;;;;;;5015311;28;20033;-65
2022/07/30 03:28:14;;;;;;;5.47;2.40;;;20.40;67.40;;;;;;5014043;28;20026;-65
2022/07/30 03:30:42;;;;;;;3.90;2.33;;;20.30;67.50;;;;;;5014788;28;20416;-65
2022/07/30 03:33:09;;;;;;;4.45;2.15;;;20.30;67.50;;;;;;5013764;28;20113;-66
2022/07/30 03:35:34;;;;;;;6.93;2.85;;;20.30;67.50;;;;;;5014384;28;20048;-65
2022/07/30 03:38:01;;;;;;;2.83;2.10;;;20.30;67.70;;;;;;5013972;28;20496;-67
2022/07/30 03:40:28;;;;;;;4.60;2.00;;;20.30;67.80;;;;;;5014716;28;20041;-66
2022/07/30 03:42:54;;;;;;;6.55;2.97;;;20.30;67.90;;;;;;5013438;28;20030;-66
2022/07/30 03:45:20;;;;;;;5.32;2.20;;;20.20;67.90;;;;;;5014868;28;20040;-66
2022/07/30 03:47:46;;;;;;;4.50;2.20;;;20.20;67.90;;;;;;5013373;28;20026;-65
2022/07/30 03:50:13;;;;;;;3.95;2.13;;;20.20;68.00;;;;;;5012944;28;20041;-65
2022/07/30 03:52:40;;;;;;;4.80;2.25;;;20.20;68.10;;;;;;5013204;28;20089;-65
2022/07/30 03:55:10;;;;;;;4.65;2.20;;;20.20;68.20;;;;;;5014495;28;20038;-65
2022/07/30 03:57:36;;;;;;;5.78;1.95;;;20.20;68.40;;;;;;5012571;28;20036;-65
2022/07/30 04:00:05;;;;;;;4.63;2.08;;;20.20;68.30;;;;;;5013376;28;20033;-65
2022/07/30 04:02:31;;;;;;;6.07;2.17;;;20.20;68.30;;;;;;5012753;28;20026;-65
2022/07/30 04:04:57;;;;;;;5.05;2.17;;;20.20;68.40;;;;;;5012843;28;20400;-65
2022/07/30 04:07:22;;;;;;;5.82;2.45;;;20.20;68.40;;;;;;5012160;28;20030;-65
2022/07/30 04:09:48;;;;;;;3.53;2.05;;;20.30;68.60;;;;;;5012101;28;20149;-65
2022/07/30 04:12:13;;;;;;;6.13;1.85;;;20.30;68.80;;;;;;5012593;28;20051;-65
2022/07/30 04:14:41;;;;;;;4.40;2.08;;;20.30;68.70;;;;;;5013914;28;20034;-65
2022/07/30 04:17:20;;;;;;;4.47;1.85;;;20.30;68.80;;;;;;5012974;28;20022;-65
2022/07/30 04:19:51;;;;;;;6.53;2.38;;;20.40;68.80;;;;;;5011771;28;20087;-65
2022/07/30 04:22:23;;;;;;;4.05;2.10;;;20.40;68.80;;;;;;5012135;28;20073;-68
2022/07/30 04:24:51;;;;;;;6.95;3.10;;;20.40;68.80;;;;;;5014229;28;20037;-71
2022/07/30 04:27:17;;;;;;;4.22;2.00;;;20.40;68.60;;;;;;5012089;28;20083;-70
2022/07/30 04:29:43;;;;;;;3.90;2.20;;;20.40;68.90;;;;;;5013532;28;20080;-68
2022/07/30 04:32:09;;;;;;;5.82;1.92;;;20.40;69.10;;;;;;5013224;28;20577;-66
2022/07/30 04:34:35;;;;;;;5.57;2.72;;;20.50;69.40;;;;;;5013479;28;20105;-65
2022/07/30 04:37:01;;;;;;;4.43;2.20;;;20.50;69.40;;;;;;5012887;28;20059;-65
2022/07/30 04:39:26;;;;;;;3.38;1.90;;;20.60;69.30;;;;;;5013716;28;20465;-65
2022/07/30 04:41:52;;;;;;;4.43;2.10;;;20.60;69.10;;;;;;5010361;28;20018;-65
2022/07/30 04:44:18;;;;;;;3.83;1.90;;;20.60;68.90;;;;;;5013463;28;20436;-65
2022/07/30 04:46:44;;;;;;;3.50;2.10;;;20.50;69.20;;;;;;5013720;28;20037;-65
2022/07/30 04:49:12;;;;;;;4.38;2.28;;;20.50;68.80;;;;;;5012807;28;20045;-65
2022/07/30 04:51:39;;;;;;;5.68;2.05;;;20.50;68.90;;;;;;5013633;28;20091;-66
2022/07/30 04:54:07;;;;;;;4.55;2.00;;;20.50;68.90;;;;;;5012778;28;20041;-66
2022/07/30 04:56:34;;;;;;;6.72;2.85;;;20.50;69.10;;;;;;5013350;28;20092;-66
2022/07/30 04:59:01;;;;;;;4.45;1.73;;;20.50;69.00;;;;;;5010781;28;20037;-67
2022/07/30 05:01:33;;;;;;;4.75;2.38;;;20.50;68.90;;;;;;5013536;28;20469;-66
2022/07/30 05:04:00;;;;;;;3.42;1.65;;;20.50;69.00;;;;;;5012358;28;20041;-66
2022/07/30 05:06:27;;;;;;;3.78;1.92;;;20.60;69.00;;;;;;5012947;28;20077;-66
2022/07/30 05:08:53;;;;;;;4.50;1.80;;;20.60;69.30;;;;;;5010697;28;20113;-65
2022/07/30 05:11:19;;;;;;;3.13;1.52;;;20.60;69.10;;;;;;5013854;28;20042;-66
2022/07/30 05:13:47;;;;;;;4.97;1.50;;;20.60;69.30;;;;;;5009208;28;20485;-65
2022/07/30 05:16:13;;;;;;;2.55;1.63;;;20.70;69.60;;;;;;5006059;28;20034;-65
2022/07/30 05:18:39;;;;;;;4.45;1.80;;;20.70;69.80;;;;;;5012112;28;20022;-65
2022/07/30 05:21:05;;;;;;;4.15;1.90;;;20.70;69.50;;;;;;5011490;28;20474;-65
2022/07/30 05:23:31;;;;;;;2.90;1.75;;;20.70;69.30;;;;;;5012434;28;20429;-66
2022/07/30 05:25:57;;;;;;;4.43;1.70;;;20.70;68.90;;;;;;5012397;28;20034;-66
2022/07/30 05:28:25;;;;;;;3.38;1.50;;;20.70;69.10;;;;;;5012205;28;20416;-66
2022/07/30 05:30:52;;;;;;;5.00;1.70;;;20.80;69.00;;;;;;5011655;28;20440;-66
2022/07/30 05:33:18;;;;;;;6.45;2.15;;;20.70;69.00;;;;;;5011135;28;20369;-66
2022/07/30 05:35:45;;;;;;;2.63;1.70;;;20.80;69.10;;;;;;5012046;28;20109;-66
2022/07/30 05:38:10;;;;;;;3.53;1.60;;;20.80;69.30;;;;;;5011373;28;20056;-66
2022/07/30 05:40:36;;;;;;;5.55;2.03;;;20.80;69.00;;;;;;5012120;28;20049;-66
2022/07/30 05:43:02;;;;;;;3.83;1.73;;;20.90;68.90;;;;;;5010993;28;20029;-66
2022/07/30 05:45:27;;;;;;;4.85;1.77;;;20.90;69.10;;;;;;4997159;28;20213;-66
2022/07/30 05:47:53;;;;;;;3.30;1.80;;;21.00;69.10;;;;;;5011009;28;20045;-66
2022/07/30 05:50:18;;;;;;;5.10;1.95;;;21.00;69.10;;;;;;5012073;28;20101;-66
2022/07/30 05:52:44;;;;;;;3.67;1.67;;;21.00;69.00;;;;;;5009876;28;20034;-66
2022/07/30 05:55:10;;;;;;;3.63;2.00;;;21.10;69.40;;;;;;5012781;28;20224;-66
2022/07/30 05:57:36;;;;;;;7.38;2.05;;;21.10;69.30;;;;;;5011180;28;20033;-64
2022/07/30 06:00:04;;;;;;;4.43;1.77;;;21.20;69.60;;;;;;5012313;28;20076;-66
2022/07/30 06:02:30;;;;;;;2.13;1.45;;;21.20;69.20;;;;;;5002412;28;20037;-66
2022/07/30 06:04:55;;;;;;;4.20;2.15;;;21.20;69.40;;;;;;5011721;28;20104;-66
2022/07/30 06:07:21;;;;;;;4.85;2.00;;;21.30;70.00;;;;;;5011154;28;20473;-66
2022/07/30 06:09:47;;;;;;;2.90;1.80;;;21.30;69.80;;;;;;5006655;28;20037;-66
2022/07/30 06:12:12;;;;;;;5.32;1.70;;;21.40;69.70;;;;;;5011115;28;20037;-66
2022/07/30 06:14:38;;;;;;;2.83;1.70;;;21.40;69.10;;;;;;5010776;28;20022;-66
2022/07/30 06:17:04;;;;;;;2.95;1.67;;;21.50;68.80;;;;;;5006716;28;20067;-66
2022/07/30 06:19:29;;;;;;;3.60;1.85;;;21.50;68.60;;;;;;5011001;28;20083;-65
2022/07/30 06:21:55;;;;;;;2.75;1.65;;;21.50;68.50;;;;;;5010926;28;20038;-64
2022/07/30 06:24:21;;;;;;;4.75;1.80;;;21.50;68.80;;;;;;5010523;28;20418;-65
2022/07/30 06:26:46;;;;;;;3.40;1.63;;;21.50;69.00;;;;;;5011760;28;20030;-66
2022/07/30 06:29:12;;;;;;;3.25;1.90;;;21.50;68.50;;;;;;5010591;28;20036;-67
2022/07/30 06:31:38;;;;;;;3.63;1.90;;;21.50;68.70;;;;;;5011304;28;20061;-65
2022/07/30 06:34:04;;;;;;;4.20;2.50;;;21.50;68.70;;;;;;5010371;28;20117;-66
2022/07/30 06:36:30;;;;;;;2.88;1.65;;;21.60;68.40;;;;;;5011627;28;20049;-66
2022/07/30 06:38:55;;;;;;;4.93;1.73;;;21.60;69.10;;;;;;5009751;28;20117;-66
2022/07/30 06:41:21;;;;;;;3.30;1.77;;;21.70;68.90;;;;;;5005174;28;20080;-65
2022/07/30 06:43:46;;;;;;;4.55;2.15;;;21.70;68.90;;;;;;5009482;28;20088;-65
2022/07/30 06:46:12;;;;;;;4.60;2.08;;;21.80;68.70;;;;;;5010204;28;20473;-66
2022/07/30 06:48:37;;;;;;;4.97;1.90;;;21.80;68.70;;;;;;5010914;28;20040;-66
2022/07/30 06:51:03;;;;;;;3.53;1.70;;;21.90;68.90;;;;;;5010158;28;20124;-65
2022/07/30 06:53:28;;;;;;;4.45;1.88;;;22.00;69.00;;;;;;5005617;28;20535;-66
2022/07/30 06:55:54;;;;;;;2.97;1.60;;;22.00;68.70;;;;;;5004563;28;20022;-66
2022/07/30 06:58:19;;;;;;;2.50;1.52;;;22.00;68.10;;;;;;5010885;28;20034;-66
2022/07/30 07:00:45;;;;;;;3.13;1.70;;;22.10;68.60;;;;;;5011956;28;20503;-66
2022/07/30 07:03:11;;;;;;;3.30;1.63;;;22.10;68.20;;;;;;5014041;28;20296;-64
2022/07/30 07:05:39;;;;;;;1.88;1.35;;;22.10;68.30;;;;;;5013602;28;20590;-66
2022/07/30 07:08:05;;;;;;;3.40;1.77;;;22.20;68.70;;;;;;5010037;28;20034;-65
2022/07/30 07:10:30;;;;;;;2.83;1.80;;;22.20;68.10;;;;;;5010225;28;20048;-66
2022/07/30 07:12:56;;;;;;;3.28;1.88;;;22.10;67.90;;;;;;5008760;28;20462;-66
2022/07/30 07:15:22;;;;;;;4.38;1.90;;;22.10;68.30;;;;;;5010642;28;20177;-66
2022/07/30 07:17:47;;;;;;;3.72;1.80;;;22.10;68.20;;;;;;5010323;28;20064;-66
2022/07/30 07:20:13;;;;;;;4.03;1.80;;;22.20;68.20;;;;;;5010115;28;20022;-66
2022/07/30 07:22:38;;;;;;;3.50;1.70;;;22.20;68.10;;;;;;5009552;28;20014;-66
2022/07/30 07:25:04;;;;;;;4.45;2.13;;;22.20;68.50;;;;;;5010686;28;20034;-66
2022/07/30 07:27:30;;;;;;;2.47;1.60;;;22.30;68.40;;;;;;5023833;28;20096;-66
2022/07/30 07:29:56;;;;;;;5.38;1.70;;;22.30;68.50;;;;;;5009807;28;20029;-66
2022/07/30 07:32:21;;;;;;;4.22;1.95;;;22.40;68.50;;;;;;5010604;28;20038;-66
2022/07/30 07:34:47;;;;;;;2.92;1.58;;;22.50;68.40;;;;;;5011521;28;20022;-65
2022/07/30 07:37:15;;;;;;;3.05;1.90;;;22.60;68.10;;;;;;5009480;28;20103;-65
2022/07/30 07:39:41;;;;;;;4.63;1.85;;;22.60;69.10;;;;;;5011276;28;20022;-65
2022/07/30 07:42:07;;;;;;;3.30;1.80;;;22.70;69.30;;;;;;5008984;28;20056;-65
2022/07/30 07:44:32;;;;;;;4.45;1.67;;;22.80;68.70;;;;;;5011419;28;20045;-65
2022/07/30 07:46:58;;;;;;;6.03;1.77;;;22.80;68.10;;;;;;5009749;28;20018;-65
2022/07/30 07:49:23;;;;;;;4.00;2.00;;;22.90;68.80;;;;;;5011007;28;20029;-65
2022/07/30 07:51:49;;;;;;;4.07;1.98;;;22.90;68.90;;;;;;5010764;28;20034;-65
2022/07/30 07:54:15;;;;;;;6.55;1.95;;;23.00;68.30;;;;;;5010558;28;20041;-66
2022/07/30 07:56:41;;;;;;;5.18;1.75;;;23.10;69.00;;;;;;5011360;28;20113;-65
2022/07/30 07:59:07;;;;;;;8.25;2.00;;;23.20;69.40;;;;;;5009517;28;20116;-65
2022/07/30 08:01:33;;;;;;;10.30;2.25;;;23.30;68.90;;;;;;5020994;28;20487;-65
2022/07/30 08:03:58;;;;;;;4.60;2.00;;;23.40;69.20;;;;;;5011772;28;20037;-63
2022/07/30 08:06:24;;;;;;;2.60;1.67;;;23.40;68.10;;;;;;5013802;28;20050;-64
2022/07/30 08:08:50;;;;;;;2.22;1.50;;;23.50;67.60;;;;;;5011813;28;20030;-64
2022/07/30 08:11:16;;;;;;;7.55;2.33;;;23.50;66.90;;;;;;5004612;28;20030;-63
2022/07/30 08:13:42;;;;;;;2.78;1.80;;;23.60;66.90;;;;;;5009035;28;20064;-64
2022/07/30 08:16:09;;;;;;;6.50;1.80;;;23.60;67.00;;;;;;5013875;28;20080;-63
2022/07/30 08:18:35;;;;;;;4.40;2.00;;;23.70;67.30;;;;;;5012377;28;20502;-64
2022/07/30 08:21:02;;;;;;;2.25;1.60;;;23.70;67.60;;;;;;5013173;28;20121;-64
2022/07/30 08:23:27;;;;;;;3.95;2.28;;;23.80;67.60;;;;;;5013507;28;20080;-62
2022/07/30 08:25:53;;;;;;;5.03;2.00;;;23.90;66.00;;;;;;5012315;28;20034;-62
2022/07/30 08:28:18;;;;;;;2.78;1.70;;;23.90;66.90;;;;;;5012723;28;20032;-63
2022/07/30 08:30:44;;;;;;;3.75;1.80;;;24.00;66.20;;;;;;5000885;28;20100;-63
2022/07/30 08:33:09;;;;;;;3.85;2.20;;;24.10;66.20;;;;;;5013412;28;20033;-62
2022/07/30 08:35:35;;;;;;;3.67;2.05;;;24.20;66.30;;;;;;5012218;28;20029;-63
2022/07/30 08:38:00;;;;;;;3.85;2.20;;;24.20;66.30;;;;;;5013095;28;20037;-63
2022/07/30 08:40:26;;;;;;;3.88;1.90;;;24.30;67.00;;;;;;5019583;28;20033;-63
2022/07/30 08:42:52;;;;;;;5.20;2.03;;;24.40;66.40;;;;;;5014197;28;20044;-63
2022/07/30 08:45:19;;;;;;;6.40;2.35;;;24.50;67.60;;;;;;5011202;28;20053;-63
2022/07/30 08:47:46;;;;;;;4.22;2.40;;;24.50;66.00;;;;;;5014270;28;20030;-62
2022/07/30 08:50:13;;;;;;;5.25;1.83;;;24.60;66.00;;;;;;5012089;28;20030;-62
2022/07/30 08:52:39;;;;;;;4.22;1.90;;;24.70;65.30;;;;;;5006605;28;20041;-62
2022/07/30 08:55:05;;;;;;;3.50;2.17;;;24.70;65.60;;;;;;5010807;28;20029;-62
2022/07/30 08:57:33;;;;;;;4.15;1.95;;;24.80;66.30;;;;;;5013862;28;20030;-63
2022/07/30 08:59:59;;;;;;;4.43;2.00;;;24.90;66.30;;;;;;5012453;28;20054;-63
2022/07/30 09:02:25;;;;;;;3.20;1.80;;;24.90;66.40;;;;;;5014075;28;20363;-63
2022/07/30 09:04:51;;;;;;;4.78;1.83;;;25.00;65.80;;;;;;5012441;28;20049;-63
2022/07/30 09:07:17;;;;;;;3.22;1.70;;;25.00;64.60;;;;;;5013888;28;20022;-63
2022/07/30 09:09:43;;;;;;;4.60;2.25;;;25.10;64.90;;;;;;5012755;28;20034;-62
2022/07/30 09:12:34;;;;;;;3.55;2.05;;;25.10;63.90;;;;;;5013345;28;20080;-62
2022/07/30 09:15:19;;;;;;;3.45;1.80;;;25.10;65.10;;;;;;5004646;28;20132;-62
2022/07/30 09:18:00;;;;;;;4.10;1.85;;;25.20;64.10;;;;;;5008814;28;20033;-63
2022/07/30 09:20:34;;;;;;;5.25;1.85;;;25.20;64.00;;;;;;5000252;28;20022;-63
2022/07/30 09:23:02;;;;;;;3.25;1.75;;;25.30;63.50;;;;;;5011223;28;20041;-63
2022/07/30 09:25:32;;;;;;;6.22;2.22;;;25.30;63.40;;;;;;5011082;28;20041;-63
2022/07/30 09:27:58;;;;;;;3.92;2.47;;;25.30;63.10;;;;;;5011818;28;20026;-63
2022/07/30 09:30:24;;;;;;;6.75;2.33;;;25.30;63.10;;;;;;5008812;28;20040;-63
2022/07/30 09:32:50;;;;;;;4.32;1.98;;;25.30;63.20;;;;;;5012813;28;20044;-63
2022/07/30 09:35:17;;;;;;;4.35;2.17;;;25.40;63.40;;;;;;5012515;28;20036;-63
2022/07/30 09:37:43;;;;;;;3.72;2.20;;;25.50;63.10;;;;;;5009716;28;20105;-63
2022/07/30 09:40:17;;;;;;;4.13;1.77;;;25.50;63.20;;;;;;5013216;28;20374;-63
2022/07/30 09:42:43;;;;;;;4.65;2.25;;;25.50;63.50;;;;;;5010641;28;20026;-63
2022/07/30 09:45:12;;;;;;;3.15;2.10;;;25.50;63.10;;;;;;5012257;28;20026;-62
2022/07/30 09:47:49;;;;;;;4.03;1.80;;;25.50;62.00;;;;;;5011073;28;20026;-62
2022/07/30 09:50:18;;;;;;;5.30;2.10;;;25.50;62.20;;;;;;5012601;28;20030;-63
2022/07/30 09:52:45;;;;;;;4.55;1.70;;;25.60;62.60;;;;;;5011534;28;20026;-62
2022/07/30 09:55:13;;;;;;;3.67;2.15;;;25.60;63.00;;;;;;5013007;28;20021;-63
2022/07/30 09:57:56;;;;;;;4.63;1.70;;;25.60;62.80;;;;;;5010356;28;20025;-63
2022/07/30 10:00:24;;;;;;;5.20;2.10;;;25.60;62.10;;;;;;5011849;28;20071;-63
2022/07/30 10:02:51;;;;;;;4.88;1.88;;;25.60;62.50;;;;;;5010002;28;20034;-63
2022/07/30 10:05:20;;;;;;;3.67;1.90;;;25.60;62.70;;;;;;5012493;28;20060;-63
2022/07/30 10:07:46;;;;;;;3.17;1.80;;;25.70;62.60;;;;;;5008902;28;20049;-63
2022/07/30 10:10:12;;;;;;;6.20;1.95;;;25.70;61.40;;;;;;5011945;28;20038;-64
2022/07/30 10:12:38;;;;;;;6.90;2.00;;;25.60;61.20;;;;;;5010917;28;20022;-63
2022/07/30 10:15:06;;;;;;;3.22;1.48;;;25.60;61.20;;;;;;5012019;28;20132;-63
2022/07/30 10:17:33;;;;;;;2.65;1.60;;;25.50;61.40;;;;;;5008514;28;20017;-63
2022/07/30 10:19:59;;;;;;;4.03;1.88;;;25.60;61.80;;;;;;5011438;28;20065;-62
2022/07/30 10:22:24;;;;;;;3.72;1.95;;;25.60;61.90;;;;;;5011393;28;20021;-62
2022/07/30 10:24:51;;;;;;;2.58;1.77;;;25.70;61.40;;;;;;5012334;28;20517;-62
2022/07/30 10:27:17;;;;;;;3.83;1.80;;;25.80;61.40;;;;;;5010050;28;20476;-63
2022/07/30 10:29:43;;;;;;;4.65;2.35;;;25.80;61.50;;;;;;5011060;28;20033;-63
2022/07/30 10:32:09;;;;;;;3.97;1.73;;;25.80;60.70;;;;;;5011334;28;20030;-63
2022/07/30 10:34:37;;;;;;;3.00;1.77;;;25.80;60.70;;;;;;5011140;28;20036;-63
2022/07/30 10:37:05;;;;;;;2.67;1.70;;;25.80;60.70;;;;;;5010140;28;20084;-63
2022/07/30 10:39:51;;;;;;;4.43;1.60;;;25.80;60.60;;;;;;5015239;28;20022;-64
2022/07/30 10:42:51;;;;;;;4.93;1.88;;;25.80;60.60;;;;;;5010907;28;20073;-63
2022/07/30 10:45:48;;;;;;;2.97;1.50;;;25.80;60.20;;;;;;5010938;28;20474;-63
2022/07/30 10:48:15;;;;;;;4.05;1.60;;;25.90;61.00;;;;;;5011422;28;20084;-63
2022/07/30 10:50:52;;;;;;;4.32;1.52;;;25.90;60.90;;;;;;5010340;28;20046;-64
2022/07/30 10:53:38;;;;;;;2.67;1.70;;;26.00;61.10;;;;;;5011094;28;20030;-64
2022/07/30 10:56:21;;;;;;;1.73;1.48;;;26.00;60.30;;;;;;5007181;28;20498;-64
2022/07/30 10:59:16;;;;;;;2.67;1.52;;;25.90;60.40;;;;;;5007450;28;20034;-64
2022/07/30 11:01:48;;;;;;;2.80;1.17;;;25.90;60.10;;;;;;5015232;28;20030;-64
2022/07/30 11:04:25;;;;;;;7.22;1.90;;;25.90;59.90;;;;;;5009756;28;20125;-64
2022/07/30 11:06:51;;;;;;;2.47;1.55;;;25.90;59.90;;;;;;5009411;28;20041;-64
2022/07/30 11:09:41;;;;;;;2.58;1.40;;;26.00;60.50;;;;;;5000570;28;20034;-64
2022/07/30 11:12:08;;;;;;;4.20;1.50;;;26.10;60.40;;;;;;5000951;28;20081;-64
2022/07/30 11:14:46;;;;;;;2.38;1.48;;;26.20;60.30;;;;;;4996355;28;20026;-64
2022/07/30 11:17:16;;;;;;;2.25;1.42;;;26.30;60.10;;;;;;5003417;28;20041;-64
2022/07/30 11:20:01;;;;;;;3.70;1.55;;;26.30;59.70;;;;;;5011513;28;20038;-64
2022/07/30 11:22:30;;;;;;;2.13;1.23;;;26.50;59.70;;;;;;5010112;28;20048;-64
2022/07/30 11:24:56;;;;;;;2.33;1.20;;;26.50;60.00;;;;;;5011520;28;20034;-63
2022/07/30 11:27:45;;;;;;;2.47;1.50;;;26.50;59.60;;;;;;5010735;28;20033;-63
2022/07/30 11:30:19;;;;;;;2.40;1.40;;;26.60;58.60;;;;;;5012851;28;20046;-65
2022/07/30 11:32:49;;;;;;;;;;;26.70;59.90;;;;;;5015129;28;20010;-64
2022/07/30 11:35:24;;;;;;;2.45;1.70;;;26.90;59.90;;;;;;5011818;28;19913;-65
2022/07/30 11:38:10;;;;;;;5.65;1.60;;;26.90;58.70;;;;;;5010307;28;20025;-64
2022/07/30 11:40:48;;;;;;;2.80;1.77;;;26.90;58.00;;;;;;5014328;28;20050;-65
2022/07/30 11:43:28;;;;;;;2.60;1.67;;;26.90;57.80;;;;;;5007999;28;20543;-65
2022/07/30 11:46:09;;;;;;;1.92;1.33;;;27.00;58.20;;;;;;5015172;28;20022;-64
2022/07/30 11:48:40;;;;;;;2.42;1.30;;;27.10;58.00;;;;;;5014196;28;20546;-63
2022/07/30 11:51:07;;;;;;;3.67;1.30;;;27.10;57.80;;;;;;5014078;28;20050;-64
2022/07/30 11:53:33;;;;;;;5.18;1.50;;;27.10;58.10;;;;;;5002535;28;20050;-64
2022/07/30 11:56:01;;;;;;;4.30;1.33;;;27.20;58.40;;;;;;4995592;28;20062;-64
2022/07/30 11:58:31;;;;;;;3.72;1.50;;;27.30;57.60;;;;;;5007639;28;20045;-64
2022/07/30 12:01:12;;;;;;;4.78;1.23;;;27.30;56.80;;;;;;5015155;28;20038;-64
2022/07/30 12:03:43;;;;;;;3.67;1.50;;;27.30;56.30;;;;;;5014446;28;20104;-64
2022/07/30 12:06:18;;;;;;;3.90;1.38;;;27.30;56.30;;;;;;5014586;28;20075;-64
2022/07/30 12:08:49;;;;;;;2.63;1.63;;;27.30;55.90;;;;;;5006141;28;20026;-64
2022/07/30 12:11:15;;;;;;;2.42;1.45;;;27.20;56.40;;;;;;5013666;28;20045;-64
2022/07/30 12:13:45;;;;;;;3.45;1.30;;;27.30;55.90;;;;;;5012882;28;20017;-64
2022/07/30 12:16:14;;;;;;;3.10;1.40;;;27.30;55.40;;;;;;5006774;28;20026;-65
2022/07/30 12:18:40;;;;;;;2.78;1.38;;;27.30;55.40;;;;;;5011297;28;20037;-64
2022/07/30 12:21:10;;;;;;;3.20;1.63;;;27.20;54.90;;;;;;5013752;28;20064;-64
2022/07/30 12:23:36;;;;;;;2.00;1.40;;;27.10;54.20;;;;;;5010369;28;20061;-64
2022/07/30 12:26:03;;;;;;;2.42;1.30;;;27.10;54.60;;;;;;5003529;28;20068;-64
2022/07/30 12:28:31;;;;;;;2.92;1.52;;;27.10;54.40;;;;;;5013228;28;20037;-64
2022/07/30 12:30:59;;;;;;;3.80;1.55;;;27.20;54.30;;;;;;5009521;28;20120;-64
2022/07/30 12:33:25;;;;;;;2.67;1.60;;;27.20;54.20;;;;;;5011476;28;20034;-65
2022/07/30 12:35:52;;;;;;;3.17;1.40;;;27.30;54.00;;;;;;5010700;28;20034;-65
2022/07/30 12:38:20;;;;;;;3.33;1.58;;;27.40;54.30;;;;;;5005374;28;20109;-65
2022/07/30 12:40:57;;;;;;;4.03;1.65;;;27.40;54.20;;;;;;5010823;28;20033;-65
2022/07/30 12:43:51;;;;;;;3.88;1.60;;;27.50;53.60;;;;;;5000610;28;20030;-65
2022/07/30 12:46:17;;;;;;;;;;;27.60;53.10;;;;;;5011908;28;20417;-65
2022/07/30 12:48:54;;;;;;;2.55;1.50;;;27.50;53.00;;;;;;5011518;28;19916;-65
2022/07/30 12:51:22;;;;;;;2.03;1.48;;;27.50;53.10;;;;;;5019658;28;20443;-65
2022/07/30 12:53:48;;;;;;;3.70;1.55;;;27.70;53.60;;;;;;5012299;28;20033;-65
2022/07/30 12:56:25;;;;;;;4.28;1.65;;;27.80;54.20;;;;;;5013437;28;20036;-65